sensor_id;sensor_type;location;lat;lon;timestamp;P1;durP1;ratioP1;P2;durP2;ratioP2
26098;SDS011;13860;52.370;6.764;2023-02-24T00:00:19;15.48;;;3.40;;
26098;SDS011;13860;52.370;6.764;2023-02-24T00:03:39;10.77;;;2.80;;
26098;SDS011;13860;52.370;6.764;2023-02-24T00:06:45;27.48;;;3.55;;
26098;SDS011;13860;52.370;6.764;2023-02-24T00:09:51;23.55;;;3.58;;
26098;SDS011;13860;52.370;6.764;2023-02-24T00:12:57;12.23;;;3.65;;
26098;SDS011;13860;52.370;6.764;2023-02-24T00:16:04;22.35;;;3.22;;
26098;SDS011;13860;52.370;6.764;2023-02-24T00:19:09;16.23;;;3.33;;
26098;SDS011;13860;52.370;6.764;2023-02-24T00:22:16;17.63;;;2.78;;
26098;SDS011;13860;52.370;6.764;2023-02-24T00:25:20;15.68;;;4.22;;
26098;SDS011;13860;52.370;6.764;2023-02-24T00:28:28;16.15;;;2.95;;
26098;SDS011;13860;52.370;6.764;2023-02-24T00:31:33;26.02;;;3.55;;
26098;SDS011;13860;52.370;6.764;2023-02-24T00:34:42;21.40;;;2.88;;
26098;SDS011;13860;52.370;6.764;2023-02-24T00:37:47;18.88;;;2.90;;
26098;SDS011;13860;52.370;6.764;2023-02-24T00:40:57;10.63;;;2.30;;
26098;SDS011;13860;52.370;6.764;2023-02-24T00:44:05;19.23;;;3.75;;
26098;SDS011;13860;52.370;6.764;2023-02-24T00:47:13;13.88;;;2.75;;
26098;SDS011;13860;52.370;6.764;2023-02-24T00:50:18;17.48;;;3.13;;
26098;SDS011;13860;52.370;6.764;2023-02-24T00:53:26;19.90;;;3.05;;
26098;SDS011;13860;52.370;6.764;2023-02-24T00:56:31;20.13;;;3.35;;
26098;SDS011;13860;52.370;6.764;2023-02-24T00:59:39;18.90;;;3.00;;
26098;SDS011;13860;52.370;6.764;2023-02-24T01:02:47;17.35;;;3.67;;
26098;SDS011;13860;52.370;6.764;2023-02-24T01:05:53;14.43;;;3.20;;
26098;SDS011;13860;52.370;6.764;2023-02-24T01:08:57;15.57;;;2.80;;
26098;SDS011;13860;52.370;6.764;2023-02-24T01:12:06;15.05;;;2.53;;
26098;SDS011;13860;52.370;6.764;2023-02-24T01:15:40;14.00;;;2.80;;
26098;SDS011;13860;52.370;6.764;2023-02-24T01:18:47;25.17;;;3.25;;
26098;SDS011;13860;52.370;6.764;2023-02-24T01:21:51;17.60;;;3.22;;
26098;SDS011;13860;52.370;6.764;2023-02-24T01:24:58;18.98;;;3.63;;
26098;SDS011;13860;52.370;6.764;2023-02-24T01:28:02;18.13;;;3.38;;
26098;SDS011;13860;52.370;6.764;2023-02-24T01:31:11;21.08;;;3.35;;
26098;SDS011;13860;52.370;6.764;2023-02-24T01:34:20;25.27;;;3.92;;
26098;SDS011;13860;52.370;6.764;2023-02-24T01:37:27;25.15;;;2.95;;
26098;SDS011;13860;52.370;6.764;2023-02-24T01:40:31;13.63;;;2.95;;
26098;SDS011;13860;52.370;6.764;2023-02-24T01:47:03;14.65;;;2.58;;
26098;SDS011;13860;52.370;6.764;2023-02-24T01:50:10;9.73;;;2.78;;
26098;SDS011;13860;52.370;6.764;2023-02-24T01:53:16;15.18;;;2.83;;
26098;SDS011;13860;52.370;6.764;2023-02-24T01:56:23;19.58;;;3.30;;
26098;SDS011;13860;52.370;6.764;2023-02-24T01:59:30;20.60;;;2.70;;
26098;SDS011;13860;52.370;6.764;2023-02-24T02:02:42;17.13;;;3.33;;
26098;SDS011;13860;52.370;6.764;2023-02-24T02:05:51;23.65;;;2.85;;
26098;SDS011;13860;52.370;6.764;2023-02-24T02:09:01;14.00;;;3.08;;
26098;SDS011;13860;52.370;6.764;2023-02-24T02:12:08;12.02;;;2.10;;
26098;SDS011;13860;52.370;6.764;2023-02-24T02:15:15;17.25;;;3.25;;
26098;SDS011;13860;52.370;6.764;2023-02-24T02:18:24;16.15;;;2.50;;
26098;SDS011;13860;52.370;6.764;2023-02-24T02:25:07;12.48;;;2.80;;
26098;SDS011;13860;52.370;6.764;2023-02-24T02:28:35;16.88;;;3.03;;
26098;SDS011;13860;52.370;6.764;2023-02-24T02:31:59;15.68;;;3.33;;
26098;SDS011;13860;52.370;6.764;2023-02-24T02:35:23;21.38;;;3.17;;
26098;SDS011;13860;52.370;6.764;2023-02-24T02:38:39;10.43;;;2.88;;
26098;SDS011;13860;52.370;6.764;2023-02-24T02:41:53;18.00;;;2.40;;
26098;SDS011;13860;52.370;6.764;2023-02-24T02:45:05;17.02;;;3.55;;
26098;SDS011;13860;52.370;6.764;2023-02-24T02:48:17;12.52;;;2.95;;
26098;SDS011;13860;52.370;6.764;2023-02-24T02:51:31;19.10;;;3.20;;
26098;SDS011;13860;52.370;6.764;2023-02-24T02:54:44;11.60;;;2.70;;
26098;SDS011;13860;52.370;6.764;2023-02-24T02:57:53;13.35;;;2.92;;
26098;SDS011;13860;52.370;6.764;2023-02-24T03:01:01;8.50;;;2.40;;
26098;SDS011;13860;52.370;6.764;2023-02-24T03:04:07;16.50;;;2.40;;
26098;SDS011;13860;52.370;6.764;2023-02-24T03:07:23;10.98;;;2.55;;
26098;SDS011;13860;52.370;6.764;2023-02-24T03:10:32;20.73;;;3.00;;
26098;SDS011;13860;52.370;6.764;2023-02-24T03:13:40;6.95;;;2.55;;
26098;SDS011;13860;52.370;6.764;2023-02-24T03:16:49;17.88;;;2.78;;
26098;SDS011;13860;52.370;6.764;2023-02-24T03:19:58;17.55;;;2.50;;
26098;SDS011;13860;52.370;6.764;2023-02-24T03:23:17;13.48;;;2.10;;
26098;SDS011;13860;52.370;6.764;2023-02-24T03:26:29;17.88;;;2.28;;
26098;SDS011;13860;52.370;6.764;2023-02-24T03:29:42;11.93;;;2.78;;
26098;SDS011;13860;52.370;6.764;2023-02-24T03:32:53;15.07;;;2.22;;
26098;SDS011;13860;52.370;6.764;2023-02-24T03:36:05;14.18;;;2.72;;
26098;SDS011;13860;52.370;6.764;2023-02-24T03:39:13;15.95;;;2.20;;
26098;SDS011;13860;52.370;6.764;2023-02-24T03:42:29;8.73;;;2.38;;
26098;SDS011;13860;52.370;6.764;2023-02-24T03:45:37;17.40;;;3.33;;
26098;SDS011;13860;52.370;6.764;2023-02-24T03:48:44;6.63;;;2.10;;
26098;SDS011;13860;52.370;6.764;2023-02-24T03:51:55;13.73;;;2.03;;
26098;SDS011;13860;52.370;6.764;2023-02-24T03:55:14;17.80;;;2.20;;
26098;SDS011;13860;52.370;6.764;2023-02-24T03:58:27;13.43;;;2.13;;
26098;SDS011;13860;52.370;6.764;2023-02-24T04:01:44;8.15;;;1.98;;
26098;SDS011;13860;52.370;6.764;2023-02-24T04:05:02;13.63;;;2.60;;
26098;SDS011;13860;52.370;6.764;2023-02-24T04:08:28;17.42;;;1.85;;
26098;SDS011;13860;52.370;6.764;2023-02-24T04:11:45;12.75;;;3.08;;
26098;SDS011;13860;52.370;6.764;2023-02-24T04:14:55;13.43;;;2.30;;
26098;SDS011;13860;52.370;6.764;2023-02-24T04:18:08;11.05;;;2.33;;
26098;SDS011;13860;52.370;6.764;2023-02-24T04:21:19;13.65;;;1.67;;
26098;SDS011;13860;52.370;6.764;2023-02-24T04:24:27;12.93;;;2.03;;
26098;SDS011;13860;52.370;6.764;2023-02-24T04:27:36;4.05;;;1.70;;
26098;SDS011;13860;52.370;6.764;2023-02-24T04:30:50;9.70;;;2.05;;
26098;SDS011;13860;52.370;6.764;2023-02-24T04:33:56;19.88;;;2.47;;
26098;SDS011;13860;52.370;6.764;2023-02-24T04:37:11;7.32;;;1.75;;
26098;SDS011;13860;52.370;6.764;2023-02-24T04:40:16;9.15;;;2.33;;
26098;SDS011;13860;52.370;6.764;2023-02-24T04:43:26;11.75;;;2.28;;
26098;SDS011;13860;52.370;6.764;2023-02-24T04:46:30;16.75;;;2.00;;
26098;SDS011;13860;52.370;6.764;2023-02-24T04:49:37;12.90;;;2.10;;
26098;SDS011;13860;52.370;6.764;2023-02-24T04:52:41;10.98;;;2.38;;
26098;SDS011;13860;52.370;6.764;2023-02-24T04:55:47;8.30;;;1.50;;
26098;SDS011;13860;52.370;6.764;2023-02-24T04:58:53;9.25;;;1.95;;
26098;SDS011;13860;52.370;6.764;2023-02-24T05:01:59;9.63;;;1.52;;
26098;SDS011;13860;52.370;6.764;2023-02-24T05:05:04;15.30;;;2.33;;
26098;SDS011;13860;52.370;6.764;2023-02-24T05:08:13;14.60;;;1.95;;
26098;SDS011;13860;52.370;6.764;2023-02-24T05:14:25;16.27;;;2.75;;
26098;SDS011;13860;52.370;6.764;2023-02-24T05:17:29;15.20;;;1.73;;
26098;SDS011;13860;52.370;6.764;2023-02-24T05:20:35;13.27;;;2.53;;
26098;SDS011;13860;52.370;6.764;2023-02-24T05:23:53;6.03;;;1.70;;
26098;SDS011;13860;52.370;6.764;2023-02-24T05:27:01;11.95;;;2.08;;
26098;SDS011;13860;52.370;6.764;2023-02-24T05:30:08;13.32;;;2.67;;
26098;SDS011;13860;52.370;6.764;2023-02-24T05:33:16;12.70;;;2.03;;
26098;SDS011;13860;52.370;6.764;2023-02-24T05:36:22;9.65;;;1.92;;
26098;SDS011;13860;52.370;6.764;2023-02-24T05:39:29;12.40;;;2.40;;
26098;SDS011;13860;52.370;6.764;2023-02-24T05:42:35;10.00;;;2.38;;
26098;SDS011;13860;52.370;6.764;2023-02-24T05:45:42;9.52;;;1.90;;
26098;SDS011;13860;52.370;6.764;2023-02-24T05:48:49;15.40;;;2.20;;
26098;SDS011;13860;52.370;6.764;2023-02-24T05:51:59;8.93;;;2.08;;
26098;SDS011;13860;52.370;6.764;2023-02-24T05:55:07;9.23;;;1.75;;
26098;SDS011;13860;52.370;6.764;2023-02-24T05:58:16;10.20;;;2.10;;
26098;SDS011;13860;52.370;6.764;2023-02-24T06:01:21;8.45;;;1.63;;
26098;SDS011;13860;52.370;6.764;2023-02-24T06:04:32;24.40;;;3.67;;
26098;SDS011;13860;52.370;6.764;2023-02-24T06:07:46;9.00;;;2.28;;
26098;SDS011;13860;52.370;6.764;2023-02-24T06:10:52;6.70;;;1.90;;
26098;SDS011;13860;52.370;6.764;2023-02-24T06:13:56;11.93;;;1.70;;
26098;SDS011;13860;52.370;6.764;2023-02-24T06:17:04;10.13;;;2.22;;
26098;SDS011;13860;52.370;6.764;2023-02-24T06:20:09;14.98;;;2.08;;
26098;SDS011;13860;52.370;6.764;2023-02-24T06:23:18;9.27;;;1.70;;
26098;SDS011;13860;52.370;6.764;2023-02-24T06:26:22;20.00;;;2.15;;
26098;SDS011;13860;52.370;6.764;2023-02-24T06:29:31;11.23;;;1.95;;
26098;SDS011;13860;52.370;6.764;2023-02-24T06:32:38;13.75;;;2.05;;
26098;SDS011;13860;52.370;6.764;2023-02-24T06:35:45;10.48;;;1.95;;
26098;SDS011;13860;52.370;6.764;2023-02-24T06:38:49;11.52;;;1.77;;
26098;SDS011;13860;52.370;6.764;2023-02-24T06:41:55;7.78;;;1.92;;
26098;SDS011;13860;52.370;6.764;2023-02-24T06:45:04;6.93;;;1.50;;
26098;SDS011;13860;52.370;6.764;2023-02-24T06:48:13;13.18;;;2.08;;
26098;SDS011;13860;52.370;6.764;2023-02-24T06:51:17;20.35;;;1.80;;
26098;SDS011;13860;52.370;6.764;2023-02-24T06:54:24;15.25;;;1.92;;
26098;SDS011;13860;52.370;6.764;2023-02-24T06:57:30;6.65;;;1.80;;
26098;SDS011;13860;52.370;6.764;2023-02-24T07:00:36;8.75;;;1.77;;
26098;SDS011;13860;52.370;6.764;2023-02-24T07:03:42;11.00;;;2.72;;
26098;SDS011;13860;52.370;6.764;2023-02-24T07:07:05;8.43;;;1.75;;
26098;SDS011;13860;52.370;6.764;2023-02-24T07:10:09;12.75;;;2.38;;
26098;SDS011;13860;52.370;6.764;2023-02-24T07:13:16;15.02;;;2.08;;
26098;SDS011;13860;52.370;6.764;2023-02-24T07:16:21;13.07;;;2.05;;
26098;SDS011;13860;52.370;6.764;2023-02-24T07:19:30;16.83;;;2.53;;
26098;SDS011;13860;52.370;6.764;2023-02-24T07:22:35;12.32;;;2.15;;
26098;SDS011;13860;52.370;6.764;2023-02-24T07:25:41;8.65;;;2.40;;
26098;SDS011;13860;52.370;6.764;2023-02-24T07:28:46;17.98;;;2.10;;
26098;SDS011;13860;52.370;6.764;2023-02-24T07:31:52;22.58;;;2.30;;
26098;SDS011;13860;52.370;6.764;2023-02-24T07:34:59;15.75;;;1.95;;
26098;SDS011;13860;52.370;6.764;2023-02-24T07:38:05;4.95;;;1.63;;
26098;SDS011;13860;52.370;6.764;2023-02-24T07:41:10;8.13;;;2.38;;
26098;SDS011;13860;52.370;6.764;2023-02-24T07:44:17;12.05;;;2.03;;
26098;SDS011;13860;52.370;6.764;2023-02-24T07:47:23;12.05;;;2.70;;
26098;SDS011;13860;52.370;6.764;2023-02-24T07:50:31;10.35;;;2.53;;
26098;SDS011;13860;52.370;6.764;2023-02-24T07:53:35;13.88;;;1.88;;
26098;SDS011;13860;52.370;6.764;2023-02-24T07:56:42;9.52;;;1.90;;
26098;SDS011;13860;52.370;6.764;2023-02-24T07:59:56;10.52;;;1.80;;
26098;SDS011;13860;52.370;6.764;2023-02-24T08:03:02;9.75;;;2.30;;
26098;SDS011;13860;52.370;6.764;2023-02-24T08:06:08;11.75;;;2.10;;
26098;SDS011;13860;52.370;6.764;2023-02-24T08:09:18;11.85;;;2.10;;
26098;SDS011;13860;52.370;6.764;2023-02-24T08:12:42;16.23;;;2.72;;
26098;SDS011;13860;52.370;6.764;2023-02-24T08:15:49;11.25;;;1.90;;
26098;SDS011;13860;52.370;6.764;2023-02-24T08:18:56;15.27;;;2.42;;
26098;SDS011;13860;52.370;6.764;2023-02-24T08:22:08;13.38;;;2.15;;
26098;SDS011;13860;52.370;6.764;2023-02-24T08:25:24;18.45;;;3.25;;
26098;SDS011;13860;52.370;6.764;2023-02-24T08:28:37;10.73;;;2.72;;
26098;SDS011;13860;52.370;6.764;2023-02-24T08:31:41;15.20;;;2.65;;
26098;SDS011;13860;52.370;6.764;2023-02-24T08:34:48;15.93;;;2.40;;
26098;SDS011;13860;52.370;6.764;2023-02-24T08:37:59;8.68;;;2.83;;
26098;SDS011;13860;52.370;6.764;2023-02-24T08:41:10;15.65;;;2.55;;
26098;SDS011;13860;52.370;6.764;2023-02-24T08:44:17;14.45;;;2.90;;
26098;SDS011;13860;52.370;6.764;2023-02-24T08:47:24;15.07;;;2.58;;
26098;SDS011;13860;52.370;6.764;2023-02-24T08:50:31;16.65;;;2.83;;
26098;SDS011;13860;52.370;6.764;2023-02-24T08:53:39;10.88;;;2.67;;
26098;SDS011;13860;52.370;6.764;2023-02-24T08:56:44;13.13;;;2.55;;
26098;SDS011;13860;52.370;6.764;2023-02-24T08:59:58;14.10;;;2.83;;
26098;SDS011;13860;52.370;6.764;2023-02-24T09:03:07;19.60;;;2.80;;
26098;SDS011;13860;52.370;6.764;2023-02-24T09:06:16;14.00;;;2.75;;
26098;SDS011;13860;52.370;6.764;2023-02-24T09:09:27;13.55;;;3.25;;
26098;SDS011;13860;52.370;6.764;2023-02-24T09:12:33;12.77;;;2.30;;
26098;SDS011;13860;52.370;6.764;2023-02-24T09:15:41;10.27;;;2.80;;
26098;SDS011;13860;52.370;6.764;2023-02-24T09:18:47;12.13;;;3.05;;
26098;SDS011;13860;52.370;6.764;2023-02-24T09:22:12;23.63;;;3.38;;
26098;SDS011;13860;52.370;6.764;2023-02-24T09:25:26;17.15;;;2.95;;
26098;SDS011;13860;52.370;6.764;2023-02-24T09:28:44;10.43;;;2.42;;
26098;SDS011;13860;52.370;6.764;2023-02-24T09:31:57;15.73;;;2.58;;
26098;SDS011;13860;52.370;6.764;2023-02-24T09:35:04;8.35;;;2.60;;
26098;SDS011;13860;52.370;6.764;2023-02-24T09:38:11;14.32;;;2.53;;
26098;SDS011;13860;52.370;6.764;2023-02-24T09:41:22;9.52;;;2.60;;
26098;SDS011;13860;52.370;6.764;2023-02-24T09:44:37;12.13;;;2.50;;
26098;SDS011;13860;52.370;6.764;2023-02-24T09:47:44;8.73;;;2.65;;
26098;SDS011;13860;52.370;6.764;2023-02-24T09:51:00;13.00;;;2.92;;
26098;SDS011;13860;52.370;6.764;2023-02-24T09:54:10;9.63;;;2.38;;
26098;SDS011;13860;52.370;6.764;2023-02-24T09:57:21;8.63;;;2.30;;
26098;SDS011;13860;52.370;6.764;2023-02-24T10:00:37;15.20;;;2.25;;
26098;SDS011;13860;52.370;6.764;2023-02-24T10:03:50;15.90;;;2.70;;
26098;SDS011;13860;52.370;6.764;2023-02-24T10:07:23;14.20;;;5.05;;
26098;SDS011;13860;52.370;6.764;2023-02-24T10:10:40;9.15;;;2.42;;
26098;SDS011;13860;52.370;6.764;2023-02-24T10:14:08;13.02;;;2.63;;
26098;SDS011;13860;52.370;6.764;2023-02-24T10:17:23;12.88;;;2.95;;
26098;SDS011;13860;52.370;6.764;2023-02-24T10:20:40;15.45;;;2.60;;
26098;SDS011;13860;52.370;6.764;2023-02-24T10:23:54;13.98;;;3.05;;
26098;SDS011;13860;52.370;6.764;2023-02-24T10:27:08;15.80;;;3.92;;
26098;SDS011;13860;52.370;6.764;2023-02-24T10:30:27;16.45;;;2.72;;
26098;SDS011;13860;52.370;6.764;2023-02-24T10:33:42;13.13;;;2.35;;
26098;SDS011;13860;52.370;6.764;2023-02-24T10:36:51;20.27;;;3.17;;
26098;SDS011;13860;52.370;6.764;2023-02-24T10:39:58;13.65;;;2.70;;
26098;SDS011;13860;52.370;6.764;2023-02-24T10:43:14;7.28;;;2.60;;
26098;SDS011;13860;52.370;6.764;2023-02-24T10:46:24;14.13;;;3.38;;
26098;SDS011;13860;52.370;6.764;2023-02-24T10:49:45;24.58;;;4.00;;
26098;SDS011;13860;52.370;6.764;2023-02-24T10:53:03;11.43;;;2.97;;
26098;SDS011;13860;52.370;6.764;2023-02-24T10:56:28;11.70;;;2.90;;
26098;SDS011;13860;52.370;6.764;2023-02-24T10:59:46;10.45;;;3.22;;
26098;SDS011;13860;52.370;6.764;2023-02-24T11:06:33;18.63;;;4.22;;
26098;SDS011;13860;52.370;6.764;2023-02-24T11:10:01;17.17;;;3.17;;
26098;SDS011;13860;52.370;6.764;2023-02-24T11:13:14;7.75;;;2.60;;
26098;SDS011;13860;52.370;6.764;2023-02-24T11:16:42;16.05;;;2.95;;
26098;SDS011;13860;52.370;6.764;2023-02-24T11:20:14;11.07;;;2.97;;
26098;SDS011;13860;52.370;6.764;2023-02-24T11:23:28;15.43;;;2.83;;
26098;SDS011;13860;52.370;6.764;2023-02-24T11:26:38;10.20;;;2.70;;
26098;SDS011;13860;52.370;6.764;2023-02-24T11:29:54;13.85;;;3.30;;
26098;SDS011;13860;52.370;6.764;2023-02-24T11:33:16;16.08;;;2.78;;
26098;SDS011;13860;52.370;6.764;2023-02-24T11:36:38;16.38;;;3.83;;
26098;SDS011;13860;52.370;6.764;2023-02-24T11:39:51;15.13;;;3.63;;
26098;SDS011;13860;52.370;6.764;2023-02-24T11:43:02;8.65;;;3.10;;
26098;SDS011;13860;52.370;6.764;2023-02-24T11:46:13;12.45;;;2.58;;
26098;SDS011;13860;52.370;6.764;2023-02-24T11:49:24;11.00;;;3.30;;
26098;SDS011;13860;52.370;6.764;2023-02-24T11:52:35;16.52;;;3.53;;
26098;SDS011;13860;52.370;6.764;2023-02-24T11:55:45;14.05;;;3.03;;
26098;SDS011;13860;52.370;6.764;2023-02-24T11:58:54;7.00;;;3.15;;
26098;SDS011;13860;52.370;6.764;2023-02-24T12:02:10;11.75;;;3.30;;
26098;SDS011;13860;52.370;6.764;2023-02-24T12:05:19;10.05;;;3.30;;
26098;SDS011;13860;52.370;6.764;2023-02-24T12:08:31;8.18;;;2.90;;
26098;SDS011;13860;52.370;6.764;2023-02-24T12:11:41;13.50;;;3.35;;
26098;SDS011;13860;52.370;6.764;2023-02-24T12:14:52;7.95;;;3.05;;
26098;SDS011;13860;52.370;6.764;2023-02-24T12:18:01;12.02;;;3.88;;
26098;SDS011;13860;52.370;6.764;2023-02-24T12:21:13;9.70;;;3.47;;
26098;SDS011;13860;52.370;6.764;2023-02-24T12:24:26;10.52;;;3.03;;
26098;SDS011;13860;52.370;6.764;2023-02-24T12:27:38;15.95;;;3.97;;
26098;SDS011;13860;52.370;6.764;2023-02-24T12:30:55;14.95;;;4.40;;
26098;SDS011;13860;52.370;6.764;2023-02-24T12:34:11;11.80;;;4.05;;
26098;SDS011;13860;52.370;6.764;2023-02-24T12:41:00;14.93;;;4.22;;
26098;SDS011;13860;52.370;6.764;2023-02-24T12:44:20;10.20;;;3.63;;
26098;SDS011;13860;52.370;6.764;2023-02-24T12:47:35;19.27;;;3.42;;
26098;SDS011;13860;52.370;6.764;2023-02-24T12:50:46;11.35;;;3.42;;
26098;SDS011;13860;52.370;6.764;2023-02-24T12:53:58;14.18;;;3.42;;
26098;SDS011;13860;52.370;6.764;2023-02-24T12:57:10;11.27;;;2.92;;
26098;SDS011;13860;52.370;6.764;2023-02-24T13:00:24;9.45;;;3.25;;
26098;SDS011;13860;52.370;6.764;2023-02-24T13:03:55;21.20;;;3.58;;
26098;SDS011;13860;52.370;6.764;2023-02-24T13:07:17;10.95;;;2.90;;
26098;SDS011;13860;52.370;6.764;2023-02-24T13:10:34;25.20;;;4.15;;
26098;SDS011;13860;52.370;6.764;2023-02-24T13:13:51;18.05;;;4.47;;
26098;SDS011;13860;52.370;6.764;2023-02-24T13:17:03;10.15;;;3.95;;
26098;SDS011;13860;52.370;6.764;2023-02-24T13:20:12;14.70;;;3.50;;
26098;SDS011;13860;52.370;6.764;2023-02-24T13:23:28;18.10;;;4.07;;
26098;SDS011;13860;52.370;6.764;2023-02-24T13:26:35;16.98;;;4.18;;
26098;SDS011;13860;52.370;6.764;2023-02-24T13:32:57;16.80;;;3.20;;
26098;SDS011;13860;52.370;6.764;2023-02-24T13:36:15;30.67;;;3.42;;
26098;SDS011;13860;52.370;6.764;2023-02-24T13:39:29;19.83;;;2.63;;
26098;SDS011;13860;52.370;6.764;2023-02-24T13:42:34;17.00;;;2.83;;
26098;SDS011;13860;52.370;6.764;2023-02-24T13:45:42;18.90;;;2.65;;
26098;SDS011;13860;52.370;6.764;2023-02-24T13:49:13;27.23;;;2.60;;
26098;SDS011;13860;52.370;6.764;2023-02-24T13:52:31;13.00;;;2.33;;
26098;SDS011;13860;52.370;6.764;2023-02-24T13:55:49;13.30;;;2.38;;
26098;SDS011;13860;52.370;6.764;2023-02-24T13:59:10;20.60;;;2.58;;
26098;SDS011;13860;52.370;6.764;2023-02-24T14:02:25;26.80;;;2.90;;
26098;SDS011;13860;52.370;6.764;2023-02-24T14:05:33;13.95;;;2.33;;
26098;SDS011;13860;52.370;6.764;2023-02-24T14:08:40;20.25;;;2.58;;
26098;SDS011;13860;52.370;6.764;2023-02-24T14:11:50;19.05;;;3.17;;
26098;SDS011;13860;52.370;6.764;2023-02-24T14:14:59;20.52;;;2.70;;
26098;SDS011;13860;52.370;6.764;2023-02-24T14:18:17;20.80;;;2.78;;
26098;SDS011;13860;52.370;6.764;2023-02-24T14:21:23;22.83;;;3.42;;
26098;SDS011;13860;52.370;6.764;2023-02-24T14:24:30;27.13;;;2.45;;
26098;SDS011;13860;52.370;6.764;2023-02-24T14:30:41;17.42;;;2.45;;
26098;SDS011;13860;52.370;6.764;2023-02-24T14:33:51;22.02;;;2.88;;
26098;SDS011;13860;52.370;6.764;2023-02-24T14:37:01;25.52;;;2.92;;
26098;SDS011;13860;52.370;6.764;2023-02-24T14:40:12;19.55;;;2.60;;
26098;SDS011;13860;52.370;6.764;2023-02-24T14:43:24;23.13;;;2.53;;
26098;SDS011;13860;52.370;6.764;2023-02-24T14:46:28;22.02;;;2.40;;
26098;SDS011;13860;52.370;6.764;2023-02-24T14:49:36;19.38;;;3.03;;
26098;SDS011;13860;52.370;6.764;2023-02-24T14:52:41;19.33;;;2.70;;
26098;SDS011;13860;52.370;6.764;2023-02-24T14:55:50;16.85;;;2.05;;
26098;SDS011;13860;52.370;6.764;2023-02-24T14:59:01;15.70;;;2.55;;
26098;SDS011;13860;52.370;6.764;2023-02-24T15:02:11;10.48;;;1.55;;
26098;SDS011;13860;52.370;6.764;2023-02-24T15:05:22;7.65;;;1.25;;
26098;SDS011;13860;52.370;6.764;2023-02-24T15:08:30;14.18;;;2.25;;
26098;SDS011;13860;52.370;6.764;2023-02-24T15:11:38;8.55;;;1.10;;
26098;SDS011;13860;52.370;6.764;2023-02-24T15:14:46;13.75;;;1.55;;
26098;SDS011;13860;52.370;6.764;2023-02-24T15:17:53;7.35;;;1.20;;
26098;SDS011;13860;52.370;6.764;2023-02-24T15:21:04;7.82;;;0.95;;
26098;SDS011;13860;52.370;6.764;2023-02-24T15:24:15;4.82;;;1.00;;
26098;SDS011;13860;52.370;6.764;2023-02-24T15:27:25;6.97;;;0.95;;
26098;SDS011;13860;52.370;6.764;2023-02-24T15:30:34;6.40;;;1.10;;
26098;SDS011;13860;52.370;6.764;2023-02-24T15:33:42;7.15;;;1.40;;
26098;SDS011;13860;52.370;6.764;2023-02-24T15:36:50;8.73;;;0.93;;
26098;SDS011;13860;52.370;6.764;2023-02-24T15:40:02;6.10;;;1.00;;
26098;SDS011;13860;52.370;6.764;2023-02-24T15:43:09;9.90;;;1.08;;
26098;SDS011;13860;52.370;6.764;2023-02-24T15:46:21;9.05;;;1.90;;
26098;SDS011;13860;52.370;6.764;2023-02-24T15:49:27;6.93;;;1.20;;
26098;SDS011;13860;52.370;6.764;2023-02-24T15:52:35;7.07;;;1.77;;
26098;SDS011;13860;52.370;6.764;2023-02-24T15:55:40;5.70;;;1.80;;
26098;SDS011;13860;52.370;6.764;2023-02-24T15:58:47;3.75;;;0.88;;
26098;SDS011;13860;52.370;6.764;2023-02-24T16:04:56;2.83;;;1.17;;
26098;SDS011;13860;52.370;6.764;2023-02-24T16:08:03;3.05;;;0.50;;
26098;SDS011;13860;52.370;6.764;2023-02-24T16:11:09;5.57;;;0.90;;
26098;SDS011;13860;52.370;6.764;2023-02-24T16:14:14;5.90;;;1.10;;
26098;SDS011;13860;52.370;6.764;2023-02-24T16:17:24;8.27;;;1.80;;
26098;SDS011;13860;52.370;6.764;2023-02-24T16:20:33;7.07;;;2.38;;
26098;SDS011;13860;52.370;6.764;2023-02-24T16:23:43;3.38;;;0.70;;
26098;SDS011;13860;52.370;6.764;2023-02-24T16:26:47;4.85;;;1.23;;
26098;SDS011;13860;52.370;6.764;2023-02-24T16:29:53;5.50;;;0.93;;
26098;SDS011;13860;52.370;6.764;2023-02-24T16:32:58;5.65;;;0.98;;
26098;SDS011;13860;52.370;6.764;2023-02-24T16:36:08;4.50;;;1.58;;
26098;SDS011;13860;52.370;6.764;2023-02-24T16:39:16;6.55;;;1.75;;
26098;SDS011;13860;52.370;6.764;2023-02-24T16:42:22;8.07;;;1.63;;
26098;SDS011;13860;52.370;6.764;2023-02-24T16:48:33;9.32;;;2.40;;
26098;SDS011;13860;52.370;6.764;2023-02-24T16:51:40;11.40;;;3.28;;
26098;SDS011;13860;52.370;6.764;2023-02-24T16:54:48;23.95;;;4.53;;
26098;SDS011;13860;52.370;6.764;2023-02-24T16:57:52;15.05;;;3.53;;
26098;SDS011;13860;52.370;6.764;2023-02-24T17:00:59;14.25;;;2.45;;
26098;SDS011;13860;52.370;6.764;2023-02-24T17:04:04;8.02;;;2.00;;
26098;SDS011;13860;52.370;6.764;2023-02-24T17:07:13;9.60;;;2.33;;
26098;SDS011;13860;52.370;6.764;2023-02-24T17:10:21;6.50;;;1.30;;
26098;SDS011;13860;52.370;6.764;2023-02-24T17:13:29;15.65;;;2.20;;
26098;SDS011;13860;52.370;6.764;2023-02-24T17:16:33;8.85;;;2.47;;
26098;SDS011;13860;52.370;6.764;2023-02-24T17:19:42;12.70;;;2.35;;
26098;SDS011;13860;52.370;6.764;2023-02-24T17:22:46;15.77;;;3.80;;
26098;SDS011;13860;52.370;6.764;2023-02-24T17:25:55;14.13;;;2.60;;
26098;SDS011;13860;52.370;6.764;2023-02-24T17:29:01;12.32;;;2.25;;
26098;SDS011;13860;52.370;6.764;2023-02-24T17:32:08;9.77;;;1.73;;
26098;SDS011;13860;52.370;6.764;2023-02-24T17:35:12;12.00;;;2.75;;
26098;SDS011;13860;52.370;6.764;2023-02-24T17:38:19;13.85;;;3.40;;
26098;SDS011;13860;52.370;6.764;2023-02-24T17:41:26;11.77;;;1.98;;
26098;SDS011;13860;52.370;6.764;2023-02-24T17:44:32;9.02;;;2.28;;
26098;SDS011;13860;52.370;6.764;2023-02-24T17:47:37;11.40;;;2.53;;
26098;SDS011;13860;52.370;6.764;2023-02-24T17:50:44;16.02;;;2.50;;
26098;SDS011;13860;52.370;6.764;2023-02-24T17:53:48;9.10;;;1.98;;
26098;SDS011;13860;52.370;6.764;2023-02-24T17:56:56;11.70;;;2.67;;
26098;SDS011;13860;52.370;6.764;2023-02-24T18:00:00;14.95;;;3.05;;
26098;SDS011;13860;52.370;6.764;2023-02-24T18:03:14;24.00;;;3.75;;
26098;SDS011;13860;52.370;6.764;2023-02-24T18:06:19;24.77;;;2.60;;
26098;SDS011;13860;52.370;6.764;2023-02-24T18:09:25;14.90;;;3.00;;
26098;SDS011;13860;52.370;6.764;2023-02-24T18:15:38;17.83;;;3.10;;
26098;SDS011;13860;52.370;6.764;2023-02-24T18:18:42;10.98;;;2.58;;
26098;SDS011;13860;52.370;6.764;2023-02-24T18:21:48;18.55;;;2.70;;
26098;SDS011;13860;52.370;6.764;2023-02-24T18:24:52;21.65;;;3.55;;
26098;SDS011;13860;52.370;6.764;2023-02-24T18:28:01;16.77;;;2.63;;
26098;SDS011;13860;52.370;6.764;2023-02-24T18:31:08;26.23;;;3.35;;
26098;SDS011;13860;52.370;6.764;2023-02-24T18:34:16;15.85;;;2.92;;
26098;SDS011;13860;52.370;6.764;2023-02-24T18:40:26;14.00;;;2.70;;
26098;SDS011;13860;52.370;6.764;2023-02-24T18:43:33;16.98;;;2.60;;
26098;SDS011;13860;52.370;6.764;2023-02-24T18:46:39;23.13;;;5.22;;
26098;SDS011;13860;52.370;6.764;2023-02-24T18:49:43;22.08;;;4.47;;
26098;SDS011;13860;52.370;6.764;2023-02-24T18:52:50;20.77;;;4.20;;
26098;SDS011;13860;52.370;6.764;2023-02-24T18:55:57;28.10;;;3.63;;
26098;SDS011;13860;52.370;6.764;2023-02-24T18:59:07;19.05;;;2.72;;
26098;SDS011;13860;52.370;6.764;2023-02-24T19:02:10;18.98;;;3.08;;
26098;SDS011;13860;52.370;6.764;2023-02-24T19:05:17;20.02;;;4.35;;
26098;SDS011;13860;52.370;6.764;2023-02-24T19:08:21;16.25;;;2.95;;
26098;SDS011;13860;52.370;6.764;2023-02-24T19:11:27;22.23;;;2.97;;
26098;SDS011;13860;52.370;6.764;2023-02-24T19:14:33;12.25;;;3.05;;
26098;SDS011;13860;52.370;6.764;2023-02-24T19:17:39;23.50;;;2.83;;
26098;SDS011;13860;52.370;6.764;2023-02-24T19:23:49;17.83;;;4.03;;
26098;SDS011;13860;52.370;6.764;2023-02-24T19:26:53;18.02;;;3.10;;
26098;SDS011;13860;52.370;6.764;2023-02-24T19:30:02;16.65;;;3.22;;